Terminal Aerodrome Forecast
Issued by NWS Pocatello, ID

Home | Current Version | Previous Version | Text Only | Print | Product List | Glossary On
Versions: 1 2 3 4 5 6 7 8 9 10 11 12 13
000
FTUS45 KPIH 200303 AAA
TAFPIH
TAF AMD
KPIH 200303Z 2003/2024 18013G23KT P6SM FEW200
     FM200500 18010KT P6SM SCT100 BKN200 WS008/18035KT
     FM200800 19015G25KT P6SM SCT100 BKN200
     FM201600 24026G36KT P6SM -SHRA BKN020 OVC040
     FM202000 24032G42KT P6SM VCSH SCT030 OVC050=

USA.gov is the U.S. government's official web portal to all federal, state and local government web resources and services.